sensor_id;sensor_type;location;lat;lon;timestamp;pressure;altitude;pressure_sealevel;temperature;humidity
28630;BME280;15817;42.130;24.762;2023-04-10T00:02:10;100056.22;;;11.59;58.07
28630;BME280;15817;42.130;24.762;2023-04-10T00:04:39;100059.75;;;11.58;57.83
28630;BME280;15817;42.130;24.762;2023-04-10T00:07:05;100059.78;;;11.56;57.38
28630;BME280;15817;42.130;24.762;2023-04-10T00:09:31;100063.31;;;11.58;57.25
28630;BME280;15817;42.130;24.762;2023-04-10T00:11:57;100062.44;;;11.58;57.66
28630;BME280;15817;42.130;24.762;2023-04-10T00:14:26;100053.56;;;11.54;57.78
28630;BME280;15817;42.130;24.762;2023-04-10T00:16:58;100052.72;;;11.49;58.02
28630;BME280;15817;42.130;24.762;2023-04-10T00:19:26;100043.84;;;11.47;58.20
28630;BME280;15817;42.130;24.762;2023-04-10T00:21:52;100046.53;;;11.44;58.22
28630;BME280;15817;42.130;24.762;2023-04-10T00:24:18;100040.31;;;11.44;58.04
28630;BME280;15817;42.130;24.762;2023-04-10T00:26:50;100030.63;;;11.35;57.80
28630;BME280;15817;42.130;24.762;2023-04-10T00:29:20;100034.19;;;11.33;57.16
28630;BME280;15817;42.130;24.762;2023-04-10T00:31:46;100038.63;;;11.32;57.45
28630;BME280;15817;42.130;24.762;2023-04-10T00:34:12;100032.41;;;11.33;57.71
28630;BME280;15817;42.130;24.762;2023-04-10T00:36:41;100030.59;;;11.38;57.81
28630;BME280;15817;42.130;24.762;2023-04-10T00:39:09;100016.44;;;11.32;57.98
28630;BME280;15817;42.130;24.762;2023-04-10T00:41:39;100019.09;;;11.33;57.93
28630;BME280;15817;42.130;24.762;2023-04-10T00:44:05;99999.56;;;11.31;57.67
28630;BME280;15817;42.130;24.762;2023-04-10T00:46:36;100010.22;;;11.31;58.02
28630;BME280;15817;42.130;24.762;2023-04-10T00:49:03;100007.59;;;11.27;57.76
28630;BME280;15817;42.130;24.762;2023-04-10T00:51:31;100011.16;;;11.30;57.83
28630;BME280;15817;42.130;24.762;2023-04-10T00:54:01;100010.25;;;11.30;58.05
28630;BME280;15817;42.130;24.762;2023-04-10T00:56:38;99999.63;;;11.27;58.04
28630;BME280;15817;42.130;24.762;2023-04-10T00:59:04;100001.41;;;11.21;57.93
28630;BME280;15817;42.130;24.762;2023-04-10T01:01:33;99995.28;;;11.12;58.18
28630;BME280;15817;42.130;24.762;2023-04-10T01:04:06;99993.53;;;11.06;57.86
28630;BME280;15817;42.130;24.762;2023-04-10T01:11:58;99992.75;;;10.86;58.90
28630;BME280;15817;42.130;24.762;2023-04-10T01:22:51;100004.31;;;10.76;59.96
28630;BME280;15817;42.130;24.762;2023-04-10T01:25:53;100008.75;;;10.74;60.16
28630;BME280;15817;42.130;24.762;2023-04-10T01:28:44;100008.81;;;10.72;60.43
28630;BME280;15817;42.130;24.762;2023-04-10T01:31:16;100012.34;;;10.71;60.54
28630;BME280;15817;42.130;24.762;2023-04-10T01:33:49;100006.16;;;10.66;60.40
28630;BME280;15817;42.130;24.762;2023-04-10T01:36:33;99995.50;;;10.63;60.72
28630;BME280;15817;42.130;24.762;2023-04-10T01:39:01;100003.50;;;10.62;61.01
28630;BME280;15817;42.130;24.762;2023-04-10T01:41:28;100007.97;;;10.60;61.23
28630;BME280;15817;42.130;24.762;2023-04-10T01:44:01;100011.47;;;10.62;61.18
28630;BME280;15817;42.130;24.762;2023-04-10T01:46:29;100008.81;;;10.62;61.21
28630;BME280;15817;42.130;24.762;2023-04-10T01:49:01;100003.53;;;10.59;61.38
28630;BME280;15817;42.130;24.762;2023-04-10T01:51:30;100010.63;;;10.60;61.31
28630;BME280;15817;42.130;24.762;2023-04-10T01:54:02;100012.41;;;10.58;61.43
28630;BME280;15817;42.130;24.762;2023-04-10T01:56:32;100009.75;;;10.50;61.56
28630;BME280;15817;42.130;24.762;2023-04-10T01:58:58;100021.31;;;10.47;61.67
28630;BME280;15817;42.130;24.762;2023-04-10T02:01:24;100005.34;;;10.41;61.96
28630;BME280;15817;42.130;24.762;2023-04-10T02:03:51;100004.47;;;10.39;62.03
28630;BME280;15817;42.130;24.762;2023-04-10T02:06:40;100015.09;;;10.42;62.17
28630;BME280;15817;42.130;24.762;2023-04-10T02:09:24;100014.25;;;10.37;62.55
28630;BME280;15817;42.130;24.762;2023-04-10T02:12:32;100003.59;;;10.31;62.65
28630;BME280;15817;42.130;24.762;2023-04-10T02:15:02;100001.84;;;10.36;63.17
28630;BME280;15817;42.130;24.762;2023-04-10T02:17:32;99999.19;;;10.32;63.09
28630;BME280;15817;42.130;24.762;2023-04-10T02:19:59;99992.97;;;10.30;63.29
28630;BME280;15817;42.130;24.762;2023-04-10T02:22:26;100000.06;;;10.31;63.21
28630;BME280;15817;42.130;24.762;2023-04-10T02:24:53;100004.50;;;10.33;63.41
28630;BME280;15817;42.130;24.762;2023-04-10T02:27:29;99994.78;;;10.23;64.06
28630;BME280;15817;42.130;24.762;2023-04-10T02:29:57;99998.31;;;10.19;64.47
28630;BME280;15817;42.130;24.762;2023-04-10T02:32:26;99994.78;;;10.20;64.61
28630;BME280;15817;42.130;24.762;2023-04-10T02:34:52;100002.75;;;10.25;64.58
28630;BME280;15817;42.130;24.762;2023-04-10T02:37:18;99985.94;;;10.26;65.16
28630;BME280;15817;42.130;24.762;2023-04-10T02:39:44;99988.53;;;10.30;65.38
28630;BME280;15817;42.130;24.762;2023-04-10T02:42:11;99973.47;;;10.35;65.57
28630;BME280;15817;42.130;24.762;2023-04-10T02:44:51;99975.25;;;10.36;65.82
28630;BME280;15817;42.130;24.762;2023-04-10T02:47:28;99974.31;;;10.39;66.20
28630;BME280;15817;42.130;24.762;2023-04-10T02:49:54;99978.75;;;10.43;66.56
28630;BME280;15817;42.130;24.762;2023-04-10T02:52:20;99984.97;;;10.43;66.86
28630;BME280;15817;42.130;24.762;2023-04-10T02:54:49;99977.91;;;10.35;67.22
28630;BME280;15817;42.130;24.762;2023-04-10T02:57:15;99971.72;;;10.33;67.19
28630;BME280;15817;42.130;24.762;2023-04-10T02:59:41;99989.44;;;10.35;67.19
28630;BME280;15817;42.130;24.762;2023-04-10T03:02:11;99971.72;;;10.31;66.98
28630;BME280;15817;42.130;24.762;2023-04-10T03:04:40;99977.03;;;10.31;67.55
28630;BME280;15817;42.130;24.762;2023-04-10T03:07:11;99973.47;;;10.28;67.62
28630;BME280;15817;42.130;24.762;2023-04-10T03:09:38;99973.47;;;10.28;67.50
28630;BME280;15817;42.130;24.762;2023-04-10T03:12:04;99985.00;;;10.33;67.54
28630;BME280;15817;42.130;24.762;2023-04-10T03:14:35;99977.91;;;10.32;67.80
28630;BME280;15817;42.130;24.762;2023-04-10T03:17:01;99972.59;;;10.29;67.60
28630;BME280;15817;42.130;24.762;2023-04-10T03:19:30;99990.31;;;10.34;67.44
28630;BME280;15817;42.130;24.762;2023-04-10T03:21:57;99981.47;;;10.29;67.60
28630;BME280;15817;42.130;24.762;2023-04-10T03:24:23;99982.34;;;10.31;67.21
28630;BME280;15817;42.130;24.762;2023-04-10T03:26:48;99985.00;;;10.28;67.40
28630;BME280;15817;42.130;24.762;2023-04-10T03:29:14;99975.28;;;10.23;66.95
28630;BME280;15817;42.130;24.762;2023-04-10T03:31:43;99975.28;;;10.23;66.98
28630;BME280;15817;42.130;24.762;2023-04-10T03:34:10;99973.53;;;10.22;66.79
28630;BME280;15817;42.130;24.762;2023-04-10T03:36:36;99971.75;;;10.24;66.61
28630;BME280;15817;42.130;24.762;2023-04-10T03:39:04;99974.41;;;10.24;66.41
28630;BME280;15817;42.130;24.762;2023-04-10T03:41:30;99982.38;;;10.27;66.19
28630;BME280;15817;42.130;24.762;2023-04-10T03:43:56;99983.25;;;10.24;65.92
28630;BME280;15817;42.130;24.762;2023-04-10T03:46:23;99977.06;;;10.19;66.19
28630;BME280;15817;42.130;24.762;2023-04-10T03:48:49;99977.94;;;10.21;66.21
28630;BME280;15817;42.130;24.762;2023-04-10T03:51:18;99977.94;;;10.20;66.03
28630;BME280;15817;42.130;24.762;2023-04-10T03:53:44;99982.38;;;10.19;65.79
28630;BME280;15817;42.130;24.762;2023-04-10T03:56:15;99978.78;;;10.17;65.98
28630;BME280;15817;42.130;24.762;2023-04-10T03:58:42;99973.47;;;10.17;65.84
28630;BME280;15817;42.130;24.762;2023-04-10T04:01:08;99972.59;;;10.16;65.80
28630;BME280;15817;42.130;24.762;2023-04-10T04:03:54;99984.16;;;10.22;65.45
28630;BME280;15817;42.130;24.762;2023-04-10T04:06:38;99991.25;;;10.21;65.54
28630;BME280;15817;42.130;24.762;2023-04-10T04:09:26;99986.81;;;10.20;65.47
28630;BME280;15817;42.130;24.762;2023-04-10T04:12:02;99986.81;;;10.19;65.23
28630;BME280;15817;42.130;24.762;2023-04-10T04:14:57;99997.44;;;10.22;65.44
28630;BME280;15817;42.130;24.762;2023-04-10T04:17:23;99997.44;;;10.23;65.06
28630;BME280;15817;42.130;24.762;2023-04-10T04:20:05;99996.56;;;10.23;65.33
28630;BME280;15817;42.130;24.762;2023-04-10T04:22:43;99995.66;;;10.19;65.61
28630;BME280;15817;42.130;24.762;2023-04-10T04:25:24;99991.25;;;10.20;65.87
28630;BME280;15817;42.130;24.762;2023-04-10T04:28:11;99991.25;;;10.18;66.03
28630;BME280;15817;42.130;24.762;2023-04-10T04:30:38;99992.97;;;10.16;66.12
28630;BME280;15817;42.130;24.762;2023-04-10T04:33:30;99990.34;;;10.14;66.37
28630;BME280;15817;42.130;24.762;2023-04-10T04:36:00;99987.66;;;10.16;66.20
28630;BME280;15817;42.130;24.762;2023-04-10T04:38:44;99986.81;;;10.19;66.89
28630;BME280;15817;42.130;24.762;2023-04-10T04:41:19;99987.69;;;10.19;66.88
28630;BME280;15817;42.130;24.762;2023-04-10T04:44:09;99991.25;;;10.21;67.05
28630;BME280;15817;42.130;24.762;2023-04-10T04:46:44;99985.91;;;10.18;67.10
28630;BME280;15817;42.130;24.762;2023-04-10T04:49:30;99982.34;;;10.17;67.16
28630;BME280;15817;42.130;24.762;2023-04-10T04:52:14;99988.59;;;10.23;67.67
28630;BME280;15817;42.130;24.762;2023-04-10T04:54:47;99988.59;;;10.23;67.44
28630;BME280;15817;42.130;24.762;2023-04-10T04:57:41;99990.34;;;10.19;67.71
28630;BME280;15817;42.130;24.762;2023-04-10T05:00:32;99988.59;;;10.20;67.18
28630;BME280;15817;42.130;24.762;2023-04-10T05:03:21;99988.59;;;10.23;67.96
28630;BME280;15817;42.130;24.762;2023-04-10T05:09:48;99991.25;;;10.24;67.66
28630;BME280;15817;42.130;24.762;2023-04-10T05:12:20;99987.69;;;10.27;67.45
28630;BME280;15817;42.130;24.762;2023-04-10T05:15:16;100000.94;;;10.31;68.04
28630;BME280;15817;42.130;24.762;2023-04-10T05:18:05;99993.88;;;10.32;67.68
28630;BME280;15817;42.130;24.762;2023-04-10T05:20:57;100000.94;;;10.31;67.75
28630;BME280;15817;42.130;24.762;2023-04-10T05:23:37;100004.50;;;10.33;67.83
28630;BME280;15817;42.130;24.762;2023-04-10T05:26:34;100002.72;;;10.32;67.81
28630;BME280;15817;42.130;24.762;2023-04-10T05:29:31;100004.50;;;10.32;67.62
28630;BME280;15817;42.130;24.762;2023-04-10T05:32:19;100010.69;;;10.32;67.91
28630;BME280;15817;42.130;24.762;2023-04-10T05:35:28;100013.34;;;10.35;67.43
28630;BME280;15817;42.130;24.762;2023-04-10T05:38:42;100022.22;;;10.37;67.75
28630;BME280;15817;42.130;24.762;2023-04-10T05:41:19;100020.41;;;10.42;67.50
28630;BME280;15817;42.130;24.762;2023-04-10T05:44:05;100017.75;;;10.45;68.14
28630;BME280;15817;42.130;24.762;2023-04-10T05:46:58;100015.94;;;10.52;67.64
28630;BME280;15817;42.130;24.762;2023-04-10T05:49:48;100021.25;;;10.57;67.86
28630;BME280;15817;42.130;24.762;2023-04-10T05:52:32;100008.84;;;10.54;67.74
28630;BME280;15817;42.130;24.762;2023-04-10T05:55:22;100015.06;;;10.59;67.26
28630;BME280;15817;42.130;24.762;2023-04-10T05:58:01;100022.09;;;10.65;67.56
28630;BME280;15817;42.130;24.762;2023-04-10T06:00:38;100009.69;;;10.62;67.16
28630;BME280;15817;42.130;24.762;2023-04-10T06:03:36;100016.78;;;10.63;67.21
28630;BME280;15817;42.130;24.762;2023-04-10T06:06:07;100013.28;;;10.61;67.63
28630;BME280;15817;42.130;24.762;2023-04-10T06:08:33;100007.91;;;10.66;67.34
28630;BME280;15817;42.130;24.762;2023-04-10T06:11:07;100016.78;;;10.72;66.66
28630;BME280;15817;42.130;24.762;2023-04-10T06:13:35;100009.66;;;10.74;66.46
28630;BME280;15817;42.130;24.762;2023-04-10T06:16:05;100009.66;;;10.77;66.04
28630;BME280;15817;42.130;24.762;2023-04-10T06:18:41;100018.47;;;10.85;65.98
28630;BME280;15817;42.130;24.762;2023-04-10T06:21:24;100011.38;;;10.86;64.84
28630;BME280;15817;42.130;24.762;2023-04-10T06:23:53;100009.59;;;10.94;64.07
28630;BME280;15817;42.130;24.762;2023-04-10T06:26:23;100007.75;;;10.98;63.37
28630;BME280;15817;42.130;24.762;2023-04-10T06:28:52;100005.03;;;11.08;63.71
28630;BME280;15817;42.130;24.762;2023-04-10T06:31:19;100000.59;;;11.12;62.92
28630;BME280;15817;42.130;24.762;2023-04-10T06:33:50;100010.28;;;11.20;62.80
28630;BME280;15817;42.130;24.762;2023-04-10T06:36:19;100020.03;;;11.28;62.60
28630;BME280;15817;42.130;24.762;2023-04-10T06:38:52;100006.72;;;11.28;62.41
28630;BME280;15817;42.130;24.762;2023-04-10T06:41:18;100006.66;;;11.34;62.48
28630;BME280;15817;42.130;24.762;2023-04-10T06:43:44;100024.31;;;11.50;62.04
28630;BME280;15817;42.130;24.762;2023-04-10T06:46:11;100010.09;;;11.51;61.30
28630;BME280;15817;42.130;24.762;2023-04-10T06:48:39;100007.44;;;11.51;60.57
28630;BME280;15817;42.130;24.762;2023-04-10T06:51:05;100018.94;;;11.56;60.70
28630;BME280;15817;42.130;24.762;2023-04-10T06:53:31;100015.38;;;11.54;59.82
28630;BME280;15817;42.130;24.762;2023-04-10T06:55:59;100026.00;;;11.63;59.72
28630;BME280;15817;42.130;24.762;2023-04-10T06:58:25;100004.69;;;11.63;59.44
28630;BME280;15817;42.130;24.762;2023-04-10T07:00:57;100017.91;;;11.72;59.33
28630;BME280;15817;42.130;24.762;2023-04-10T07:03:25;100013.44;;;11.82;57.63
28630;BME280;15817;42.130;24.762;2023-04-10T07:05:53;100022.25;;;11.88;56.86
28630;BME280;15817;42.130;24.762;2023-04-10T07:08:21;100014.22;;;11.91;56.74
28630;BME280;15817;42.130;24.762;2023-04-10T07:10:52;100025.66;;;12.03;56.21
28630;BME280;15817;42.130;24.762;2023-04-10T07:13:20;100030.97;;;12.06;54.90
28630;BME280;15817;42.130;24.762;2023-04-10T07:15:52;100017.63;;;12.10;53.60
28630;BME280;15817;42.130;24.762;2023-04-10T07:18:19;100021.97;;;12.19;53.22
28630;BME280;15817;42.130;24.762;2023-04-10T07:20:45;100028.94;;;12.32;52.93
28630;BME280;15817;42.130;24.762;2023-04-10T07:23:14;100021.84;;;12.32;52.83
28630;BME280;15817;42.130;24.762;2023-04-10T07:26:08;100026.19;;;12.41;53.23
28630;BME280;15817;42.130;24.762;2023-04-10T07:28:37;100027.06;;;12.43;53.15
28630;BME280;15817;42.130;24.762;2023-04-10T07:31:03;100022.59;;;12.45;53.85
28630;BME280;15817;42.130;24.762;2023-04-10T07:33:35;100023.38;;;12.52;53.24
28630;BME280;15817;42.130;24.762;2023-04-10T07:36:04;100020.72;;;12.52;52.70
28630;BME280;15817;42.130;24.762;2023-04-10T07:38:34;100020.63;;;12.58;53.22
28630;BME280;15817;42.130;24.762;2023-04-10T07:41:12;100017.03;;;12.62;52.94
28630;BME280;15817;42.130;24.762;2023-04-10T07:43:43;100025.00;;;12.68;53.20
28630;BME280;15817;42.130;24.762;2023-04-10T07:46:09;100020.56;;;12.65;52.07
28630;BME280;15817;42.130;24.762;2023-04-10T07:48:36;100014.94;;;12.88;52.01
28630;BME280;15817;42.130;24.762;2023-04-10T07:51:02;100014.53;;;13.20;51.70
28630;BME280;15817;42.130;24.762;2023-04-10T07:53:28;100011.03;;;13.14;50.98
28630;BME280;15817;42.130;24.762;2023-04-10T07:56:00;100006.56;;;13.16;52.18
28630;BME280;15817;42.130;24.762;2023-04-10T07:58:26;100012.84;;;13.15;52.05
28630;BME280;15817;42.130;24.762;2023-04-10T08:00:52;100000.38;;;13.15;50.86
28630;BME280;15817;42.130;24.762;2023-04-10T08:03:39;100002.88;;;13.26;51.31
28630;BME280;15817;42.130;24.762;2023-04-10T08:06:09;99996.72;;;13.21;52.07
28630;BME280;15817;42.130;24.762;2023-04-10T08:08:40;100002.94;;;13.23;52.83
28630;BME280;15817;42.130;24.762;2023-04-10T08:13:54;99992.03;;;13.36;52.47
28630;BME280;15817;42.130;24.762;2023-04-10T08:16:25;99995.63;;;13.35;52.25
28630;BME280;15817;42.130;24.762;2023-04-10T08:21:43;99991.91;;;13.46;51.83
28630;BME280;15817;42.130;24.762;2023-04-10T08:24:09;99984.59;;;13.55;52.59
28630;BME280;15817;42.130;24.762;2023-04-10T08:26:35;99989.97;;;13.54;52.06
28630;BME280;15817;42.130;24.762;2023-04-10T08:29:01;99987.41;;;13.49;52.14
28630;BME280;15817;42.130;24.762;2023-04-10T08:31:47;99982.13;;;13.45;50.70
28630;BME280;15817;42.130;24.762;2023-04-10T08:34:15;99978.53;;;13.47;50.57
28630;BME280;15817;42.130;24.762;2023-04-10T08:36:47;99981.56;;;13.76;49.79
28630;BME280;15817;42.130;24.762;2023-04-10T08:39:22;99993.13;;;13.80;47.74
28630;BME280;15817;42.130;24.762;2023-04-10T08:41:59;99982.22;;;13.91;47.62
28630;BME280;15817;42.130;24.762;2023-04-10T08:44:25;99972.66;;;13.76;48.88
28630;BME280;15817;42.130;24.762;2023-04-10T08:46:58;99974.47;;;13.75;49.71
28630;BME280;15817;42.130;24.762;2023-04-10T08:49:30;99977.22;;;13.71;51.07
28630;BME280;15817;42.130;24.762;2023-04-10T08:52:03;99971.91;;;13.69;51.10
28630;BME280;15817;42.130;24.762;2023-04-10T08:54:39;99966.53;;;13.72;52.12
28630;BME280;15817;42.130;24.762;2023-04-10T08:57:14;99964.84;;;13.64;51.41
28630;BME280;15817;42.130;24.762;2023-04-10T08:59:48;99957.84;;;13.58;51.17
28630;BME280;15817;42.130;24.762;2023-04-10T09:02:14;99959.78;;;13.49;50.61
28630;BME280;15817;42.130;24.762;2023-04-10T09:04:47;99958.94;;;13.47;51.43
28630;BME280;15817;42.130;24.762;2023-04-10T09:07:14;99949.22;;;13.39;52.09
28630;BME280;15817;42.130;24.762;2023-04-10T09:09:40;99954.66;;;13.36;51.22
28630;BME280;15817;42.130;24.762;2023-04-10T09:12:10;99956.41;;;13.37;50.93
28630;BME280;15817;42.130;24.762;2023-04-10T09:14:45;99955.41;;;13.43;51.83
28630;BME280;15817;42.130;24.762;2023-04-10T09:17:24;99948.28;;;13.44;52.07
28630;BME280;15817;42.130;24.762;2023-04-10T09:19:54;99947.44;;;13.40;52.10
28630;BME280;15817;42.130;24.762;2023-04-10T09:22:34;99950.94;;;13.44;52.73
28630;BME280;15817;42.130;24.762;2023-04-10T09:25:02;99953.66;;;13.40;51.34
28630;BME280;15817;42.130;24.762;2023-04-10T09:27:35;99948.50;;;13.28;52.17
28630;BME280;15817;42.130;24.762;2023-04-10T09:30:02;99943.19;;;13.28;52.95
28630;BME280;15817;42.130;24.762;2023-04-10T09:32:43;99941.41;;;13.27;52.98
28630;BME280;15817;42.130;24.762;2023-04-10T09:35:10;99945.84;;;13.28;52.86
28630;BME280;15817;42.130;24.762;2023-04-10T09:37:40;99942.25;;;13.31;53.45
28630;BME280;15817;42.130;24.762;2023-04-10T09:40:23;99939.53;;;13.34;53.36
28630;BME280;15817;42.130;24.762;2023-04-10T09:42:50;99943.09;;;13.34;53.63
28630;BME280;15817;42.130;24.762;2023-04-10T09:45:18;99947.47;;;13.38;54.24
28630;BME280;15817;42.130;24.762;2023-04-10T09:48:26;99952.91;;;13.32;54.05
28630;BME280;15817;42.130;24.762;2023-04-10T09:55:04;99944.16;;;13.24;54.76
28630;BME280;15817;42.130;24.762;2023-04-10T09:57:36;99936.13;;;13.24;54.87
28630;BME280;15817;42.130;24.762;2023-04-10T10:00:17;99939.72;;;13.22;55.79
28630;BME280;15817;42.130;24.762;2023-04-10T10:03:00;99937.94;;;13.24;56.32
28630;BME280;15817;42.130;24.762;2023-04-10T10:05:42;99936.94;;;13.29;56.75
28630;BME280;15817;42.130;24.762;2023-04-10T10:08:19;99932.56;;;13.25;56.99
28630;BME280;15817;42.130;24.762;2023-04-10T10:18:43;99929.88;;;13.25;57.31
28630;BME280;15817;42.130;24.762;2023-04-10T10:21:17;99933.44;;;13.26;58.03
28630;BME280;15817;42.130;24.762;2023-04-10T10:24:41;99937.84;;;13.28;60.13
28630;BME280;15817;42.130;24.762;2023-04-10T10:28:24;99931.69;;;13.25;60.70
28630;BME280;15817;42.130;24.762;2023-04-10T10:34:00;99925.63;;;13.11;61.43
28630;BME280;15817;42.130;24.762;2023-04-10T10:36:47;99917.56;;;13.14;60.65
28630;BME280;15817;42.130;24.762;2023-04-10T10:39:31;99920.28;;;13.12;61.17
28630;BME280;15817;42.130;24.762;2023-04-10T10:42:21;99929.19;;;13.14;60.44
28630;BME280;15817;42.130;24.762;2023-04-10T10:48:44;99920.31;;;13.07;60.72
28630;BME280;15817;42.130;24.762;2023-04-10T10:51:49;99923.75;;;13.17;60.74
28630;BME280;15817;42.130;24.762;2023-04-10T10:54:49;99909.63;;;13.09;60.24
28630;BME280;15817;42.130;24.762;2023-04-10T11:01:16;99903.22;;;13.22;59.10
28630;BME280;15817;42.130;24.762;2023-04-10T11:04:45;99910.25;;;13.28;59.14
28630;BME280;15817;42.130;24.762;2023-04-10T11:11:26;99896.78;;;13.34;57.53
28630;BME280;15817;42.130;24.762;2023-04-10T11:16:44;99902.28;;;13.26;58.60
28630;BME280;15817;42.130;24.762;2023-04-10T11:19:15;99903.03;;;13.33;59.25
28630;BME280;15817;42.130;24.762;2023-04-10T11:22:07;99901.19;;;13.38;59.85
28630;BME280;15817;42.130;24.762;2023-04-10T11:25:01;99897.63;;;13.37;59.06
28630;BME280;15817;42.130;24.762;2023-04-10T11:27:53;99891.41;;;13.37;58.90
28630;BME280;15817;42.130;24.762;2023-04-10T11:30:28;99900.22;;;13.40;58.23
28630;BME280;15817;42.130;24.762;2023-04-10T11:32:55;99904.66;;;13.41;58.17
28630;BME280;15817;42.130;24.762;2023-04-10T11:35:25;99893.19;;;13.38;57.36
28630;BME280;15817;42.130;24.762;2023-04-10T11:38:17;99895.78;;;13.39;57.89
28630;BME280;15817;42.130;24.762;2023-04-10T11:40:55;99905.56;;;13.42;58.64
28630;BME280;15817;42.130;24.762;2023-04-10T11:43:21;99901.34;;;13.27;58.85
28630;BME280;15817;42.130;24.762;2023-04-10T11:45:49;99913.88;;;13.25;58.71
28630;BME280;15817;42.130;24.762;2023-04-10T11:48:15;99899.81;;;13.14;59.95
28630;BME280;15817;42.130;24.762;2023-04-10T11:50:42;99908.75;;;13.09;60.71
28630;BME280;15817;42.130;24.762;2023-04-10T11:53:23;99902.66;;;12.99;61.26
28630;BME280;15817;42.130;24.762;2023-04-10T11:55:57;99894.78;;;12.91;61.85
28630;BME280;15817;42.130;24.762;2023-04-10T11:58:29;99896.59;;;12.89;62.12
28630;BME280;15817;42.130;24.762;2023-04-10T12:01:02;99884.13;;;12.90;63.25
28630;BME280;15817;42.130;24.762;2023-04-10T12:03:36;99888.50;;;12.94;63.28
28630;BME280;15817;42.130;24.762;2023-04-10T12:06:14;99897.28;;;13.02;63.67
28630;BME280;15817;42.130;24.762;2023-04-10T12:08:43;99886.53;;;13.05;63.81
28630;BME280;15817;42.130;24.762;2023-04-10T12:11:12;99888.25;;;13.09;63.48
28630;BME280;15817;42.130;24.762;2023-04-10T12:13:40;99877.72;;;13.00;62.22
28630;BME280;15817;42.130;24.762;2023-04-10T12:16:12;99872.41;;;12.98;61.79
28630;BME280;15817;42.130;24.762;2023-04-10T12:18:39;99876.66;;;13.12;62.41
28630;BME280;15817;42.130;24.762;2023-04-10T12:21:07;99865.97;;;13.12;62.09
28630;BME280;15817;42.130;24.762;2023-04-10T12:23:35;99859.56;;;13.25;61.37
28630;BME280;15817;42.130;24.762;2023-04-10T12:26:13;99861.13;;;13.38;60.90
28630;BME280;15817;42.130;24.762;2023-04-10T12:28:51;99864.44;;;13.51;60.56
28630;BME280;15817;42.130;24.762;2023-04-10T12:31:17;99850.13;;;13.53;59.77
28630;BME280;15817;42.130;24.762;2023-04-10T12:33:44;99843.72;;;13.63;59.60
28630;BME280;15817;42.130;24.762;2023-04-10T12:36:20;99835.63;;;13.68;59.14
28630;BME280;15817;42.130;24.762;2023-04-10T12:38:48;99846.31;;;13.68;59.13
28630;BME280;15817;42.130;24.762;2023-04-10T12:41:20;99840.28;;;13.57;58.52
28630;BME280;15817;42.130;24.762;2023-04-10T12:43:47;99835.56;;;13.71;58.71
28630;BME280;15817;42.130;24.762;2023-04-10T12:46:28;99831.84;;;13.78;58.54
28630;BME280;15817;42.130;24.762;2023-04-10T12:49:07;99833.44;;;13.87;57.25
28630;BME280;15817;42.130;24.762;2023-04-10T12:54:09;99818.72;;;14.09;57.25
28630;BME280;15817;42.130;24.762;2023-04-10T12:56:44;99821.34;;;14.12;56.29
28630;BME280;15817;42.130;24.762;2023-04-10T12:59:15;99816.00;;;14.12;57.20
28630;BME280;15817;42.130;24.762;2023-04-10T13:01:43;99816.03;;;14.10;56.64
28630;BME280;15817;42.130;24.762;2023-04-10T13:04:12;99808.13;;;14.06;56.57
28630;BME280;15817;42.130;24.762;2023-04-10T13:06:47;99813.50;;;14.04;56.28
28630;BME280;15817;42.130;24.762;2023-04-10T13:09:19;99801.91;;;14.04;56.28
28630;BME280;15817;42.130;24.762;2023-04-10T13:11:46;99800.97;;;14.06;56.45
28630;BME280;15817;42.130;24.762;2023-04-10T13:14:12;99796.59;;;14.02;55.95
28630;BME280;15817;42.130;24.762;2023-04-10T13:16:40;99795.66;;;14.05;54.70
28630;BME280;15817;42.130;24.762;2023-04-10T13:19:11;99797.31;;;14.10;55.03
28630;BME280;15817;42.130;24.762;2023-04-10T13:21:37;99797.97;;;14.22;54.78
28630;BME280;15817;42.130;24.762;2023-04-10T13:24:05;99793.50;;;14.22;55.21
28630;BME280;15817;42.130;24.762;2023-04-10T13:26:31;99786.41;;;14.20;55.71
28630;BME280;15817;42.130;24.762;2023-04-10T13:28:57;99779.38;;;14.16;55.04
28630;BME280;15817;42.130;24.762;2023-04-10T13:31:23;99781.19;;;14.13;54.76
28630;BME280;15817;42.130;24.762;2023-04-10T13:33:59;99779.34;;;14.17;54.13
28630;BME280;15817;42.130;24.762;2023-04-10T13:36:25;99778.38;;;14.20;54.01
28630;BME280;15817;42.130;24.762;2023-04-10T13:38:51;99778.50;;;14.15;54.34
28630;BME280;15817;42.130;24.762;2023-04-10T13:41:17;99774.16;;;14.09;54.65
28630;BME280;15817;42.130;24.762;2023-04-10T13:43:47;99768.78;;;14.11;54.34
28630;BME280;15817;42.130;24.762;2023-04-10T13:46:16;99768.00;;;14.06;54.01
28630;BME280;15817;42.130;24.762;2023-04-10T13:48:44;99769.06;;;13.97;53.85
28630;BME280;15817;42.130;24.762;2023-04-10T13:51:10;99767.44;;;13.90;54.16
28630;BME280;15817;42.130;24.762;2023-04-10T13:53:45;99765.69;;;13.89;54.76
28630;BME280;15817;42.130;24.762;2023-04-10T13:56:11;99764.72;;;13.93;54.88
28630;BME280;15817;42.130;24.762;2023-04-10T13:58:40;99755.81;;;13.93;55.46
28630;BME280;15817;42.130;24.762;2023-04-10T14:01:06;99750.50;;;13.91;55.73
28630;BME280;15817;42.130;24.762;2023-04-10T14:03:34;99760.16;;;13.97;55.67
28630;BME280;15817;42.130;24.762;2023-04-10T14:06:02;99747.78;;;13.93;55.93
28630;BME280;15817;42.130;24.762;2023-04-10T14:08:28;99758.47;;;13.94;55.86
28630;BME280;15817;42.130;24.762;2023-04-10T14:10:55;99757.59;;;13.92;55.87
28630;BME280;15817;42.130;24.762;2023-04-10T14:13:20;99749.63;;;13.89;55.77
28630;BME280;15817;42.130;24.762;2023-04-10T14:15:46;99744.25;;;13.91;56.15